Flight Track Log - Related Links

Times and Time Zones

All times are in EDT time to prevent confusion due to time zone crossing. See the SWA2009 flight status page for this flight to view local times or setup timezone preferences in your user account.

Time Position Orientation Groundspeed Altitude Reporting Facility
EDT Latitude Longitude Course Direction KTS MPH feet Rate Location/Type
Sat 03:55:56 PM 42.9608 -88.0508 284° West 234 269 7,300  Level Chicago Center
Sat 03:56:57 PM 42.9747 -88.1492 281° West 229 264 10,600 2,585 Climbing Chicago Center
Sat 03:57:59 PM 42.9803 -88.2447 275° West 247 284 12,600 1,839 Climbing Chicago Center
Sat 03:59:01 PM 42.9839 -88.3636 272° West 303 349 14,400 2,226 Climbing Chicago Center
Sat 04:00:03 PM 42.9878 -88.4953 272° West 343 395 17,200 2,634 Climbing Chicago Center
Sat 04:01:04 PM 42.9892 -88.6317 271° West 354 407 19,800 2,439 Climbing Chicago Center
Sat 04:02:06 PM 42.9892 -88.7750 270° West 371 427 22,200 2,226 Climbing Chicago Center
Sat 04:03:08 PM 42.9911 -88.9233 271° West 384 442 24,400 1,984 Climbing Chicago Center
Sat 04:04:10 PM 42.9936 -89.0744 271° West 393 452 26,300 1,839 Climbing Chicago Center
Sat 04:05:12 PM 42.9889 -89.2550 268° West 412 474 28,200 1,756 Climbing Chicago Center
Sat 04:06:13 PM 42.9686 -89.4119 260° West 417 480 29,900 1,756 Climbing Chicago Center
Sat 04:07:15 PM 42.9469 -89.5669 259° West 416 479 31,800 1,935 Climbing Chicago Center
Sat 04:08:17 PM 42.9292 -89.7197 261° West 410 472 33,900 1,790 Climbing Chicago Center
Sat 04:09:19 PM 42.9042 -89.8681 257° West 400 460 35,500 1,452 Climbing Chicago Center
Sat 04:10:21 PM 42.8775 -90.0194 257° West 402 463 36,900 1,220 Climbing Chicago Center
Sat 04:11:22 PM 42.8536 -90.1631 257° West 395 455 38,000 537 Climbing Chicago Center
Sat 04:12:24 PM 42.8306 -90.3058 258° West 390 449 38,000  Level Chicago Center
Sat 04:13:26 PM 42.8019 -90.4778 257° West 391 450 38,000  Level Chicago Center
Sat 04:14:28 PM 42.7758 -90.6200 256° West 391 450 38,000  Level Chicago Center
Sat 04:15:30 PM 42.7503 -90.7658 257° West 398 458 38,000  Level Chicago Center
Sat 04:16:31 PM 42.7250 -90.9117 257° West 400 460 38,000  Level Chicago Center
Sat 04:17:33 PM 42.7011 -91.0589 258° West 401 461 38,000  Level Chicago Center
Sat 04:18:35 PM 42.6742 -91.2058 256° West 403 464 38,000  Level Chicago Center
Sat 04:19:37 PM 42.6425 -91.3819 256° West 400 460 38,000  Level Chicago Center
Sat 04:20:39 PM 42.6150 -91.5283 256° West 397 457 38,000  Level Chicago Center
Sat 04:21:40 PM 42.5886 -91.6750 256° West 396 456 38,000  Level Chicago Center
Sat 04:22:42 PM 42.5611 -91.8208 256° West 397 457 38,000  Level Chicago Center
Sat 04:23:44 PM 42.5350 -91.9650 256° West 395 455 38,000  Level Chicago Center
Sat 04:24:46 PM 42.5078 -92.1083 256° West 395 455 38,000  Level Chicago Center
Sat 04:25:35 PM 42.4856 -92.2253 256° West 396 456 38,000  Level Minneapolis Center
Sat 04:26:36 PM 42.4581 -92.3683 255° West 395 455 38,000  Level Minneapolis Center
Sat 04:27:38 PM 42.4256 -92.5411 256° West 396 456 38,000  Level Minneapolis Center
Sat 04:28:39 PM 42.3972 -92.6856 255° West 399 459 38,000  Level Minneapolis Center
Sat 04:29:41 PM 42.3697 -92.8303 256° West 399 459 38,000  Level Minneapolis Center
Sat 04:30:42 PM 42.3411 -92.9750 255° West 400 460 38,000  Level Minneapolis Center
Sat 04:31:43 PM 42.3125 -93.1192 255° West 400 460 38,000  Level Minneapolis Center
Sat 04:32:45 PM 42.2847 -93.2642 256° West 400 460 38,000  Level Minneapolis Center
Sat 04:33:46 PM 42.2564 -93.4089 255° West 401 461 38,000  Level Minneapolis Center
Sat 04:34:48 PM 42.2200 -93.5794 254° West 397 457 38,000  Level Minneapolis Center
Sat 04:35:49 PM 42.1908 -93.7231 255° West 399 459 38,000  Level Minneapolis Center
Sat 04:36:51 PM 42.1606 -93.8675 254° West 403 464 38,000  Level Minneapolis Center
Sat 04:37:52 PM 42.1333 -94.0064 255° West 392 451 38,000  Level Minneapolis Center
Sat 04:38:54 PM 42.1036 -94.1497 254° West 396 456 38,000  Level Minneapolis Center
Sat 04:39:56 PM 42.0736 -94.2942 254° West 400 460 38,000  Level Minneapolis Center
Sat 04:40:57 PM 42.0431 -94.4400 254° West 405 466 38,000  Level Minneapolis Center
Sat 04:41:59 PM 42.0058 -94.6131 254° West 404 465 38,000  Level Minneapolis Center
Sat 04:43:00 PM 41.9756 -94.7569 254° West 402 463 38,000  Level Minneapolis Center
Sat 04:44:02 PM 41.9442 -94.9019 254° West 404 465 38,000  Level Minneapolis Center
Sat 04:45:03 PM 41.9144 -95.0450 254° West 399 459 38,000  Level Minneapolis Center
Sat 04:46:05 PM 41.8819 -95.1889 253° West 403 464 38,000  Level Minneapolis Center
Sat 04:47:06 PM 41.8508 -95.3325 254° West 403 464 38,000  Level Minneapolis Center
Sat 04:48:08 PM 41.8189 -95.4753 253° West 401 461 38,000  Level Minneapolis Center
Sat 04:49:09 PM 41.7808 -95.6456 253° West 400 460 38,000  Level Minneapolis Center
Sat 04:50:11 PM 41.7483 -95.7886 253° West 401 461 38,000  Level Minneapolis Center
Sat 04:51:13 PM 41.7156 -95.9317 253° West 403 464 38,000  Level Minneapolis Center
Sat 04:52:14 PM 41.6842 -96.0744 254° West 403 464 38,000  Level Minneapolis Center
Sat 04:53:16 PM 41.6506 -96.2169 253° West 404 465 38,000  Level Minneapolis Center
Sat 04:54:17 PM 41.6183 -96.3606 253° West 408 470 38,000  Level Minneapolis Center
Sat 04:55:19 PM 41.5781 -96.5303 252° West 404 465 38,000  Level Minneapolis Center
Sat 04:56:20 PM 41.5456 -96.6736 253° West 404 465 38,000  Level Minneapolis Center
Sat 04:57:22 PM 41.5122 -96.8131 252° West 399 459 38,000  Level Minneapolis Center
Sat 04:58:23 PM 41.4786 -96.9525 252° West 397 457 38,000  Level Minneapolis Center
Sat 04:59:25 PM 41.4453 -97.0917 252° West 396 456 38,000  Level Minneapolis Center
Sat 05:00:27 PM 41.4125 -97.2306 253° West 395 455 38,000  Level Minneapolis Center
Sat 05:01:29 PM 41.3797 -97.3669 252° West 390 449 38,000  Level Minneapolis Center
Sat 05:02:30 PM 41.3469 -97.5025 252° West 386 444 38,000  Level Minneapolis Center
Sat 05:03:32 PM 41.3083 -97.6586 252° West 384 442 38,000  Level Minneapolis Center
Sat 05:04:33 PM 41.2753 -97.7936 252° West 383 441 38,000  Level Minneapolis Center
Sat 05:05:35 PM 41.2425 -97.9286 252° West 385 443 38,000  Level Minneapolis Center
Sat 05:06:36 PM 41.2089 -98.0633 252° West 384 442 38,000  Level Minneapolis Center
Sat 05:07:38 PM 41.1758 -98.1972 252° West 382 440 38,000  Level Minneapolis Center
Sat 05:08:39 PM 41.1422 -98.3311 252° West 382 440 38,000  Level Minneapolis Center
Sat 05:09:41 PM 41.1064 -98.4736 252° West 392 451 38,000  Level Minneapolis Center
Sat 05:10:42 PM 41.0717 -98.6103 251° West 393 452 38,000  Level Minneapolis Center
Sat 05:11:44 PM 41.0303 -98.7714 251° West 388 447 38,000  Level Minneapolis Center
Sat 05:12:45 PM 40.9956 -98.9050 251° West 385 443 38,000  Level Minneapolis Center
Sat 05:13:46 PM 40.9617 -99.0386 251° West 384 442 38,000 436 Level Minneapolis Center
Sat 05:14:35 PM 40.9372 -99.1547 254° West 383 441 38,800 757 Climbing Denver Center
Sat 05:15:37 PM 40.9128 -99.2928 257° West 383 441 39,400 585 Climbing Denver Center
Sat 05:16:38 PM 40.8881 -99.4322 257° West 387 445 40,000 293 Climbing Denver Center
Sat 05:17:40 PM 40.8614 -99.5733 256° West 393 452 40,000  Level Denver Center
Sat 05:18:41 PM 40.8356 -99.7142 256° West 394 453 40,000  Level Denver Center
Sat 05:19:42 PM 40.8053 -99.8706 256° West 396 456 40,000  Level Denver Center
Sat 05:20:44 PM 40.7808 -100.0028 256° West 388 447 40,000  Level Denver Center
Sat 05:21:45 PM 40.7556 -100.1367 256° West 391 450 40,000  Level Denver Center
Sat 05:22:47 PM 40.7258 -100.2914 256° West 389 448 40,000  Level Denver Center
Sat 05:23:48 PM 40.7008 -100.4250 256° West 389 448 40,000  Level Denver Center
Sat 05:24:50 PM 40.6750 -100.5583 256° West 389 448 40,000  Level Denver Center
Sat 05:25:51 PM 40.6442 -100.7136 255° West 388 447 40,000  Level Denver Center
Sat 05:26:52 PM 40.6222 -100.8250 255° West 389 448 40,000  Level Denver Center
Sat 05:27:54 PM 40.5906 -100.9825 255° West 395 455 40,000  Level Denver Center
Sat 05:28:55 PM 40.5608 -101.1381 256° West 393 452 40,000  Level Denver Center
Sat 05:29:57 PM 40.5333 -101.2717 255° West 394 453 40,000  Level Denver Center
Sat 05:30:58 PM 40.5019 -101.4264 255° West 392 451 40,000  Level Denver Center
Sat 05:32:00 PM 40.4747 -101.5592 255° West 392 451 40,000  Level Denver Center
Sat 05:33:01 PM 40.4472 -101.6936 255° West 398 458 40,000  Level Denver Center
Sat 05:34:03 PM 40.4147 -101.8506 255° West 399 459 40,000  Level Denver Center
Sat 05:35:04 PM 40.3858 -101.9850 254° West 401 461 40,000  Level Denver Center
Sat 05:36:06 PM 40.3533 -102.1428 255° West 400 460 40,000  Level Denver Center
Sat 05:37:08 PM 40.3258 -102.2747 255° West 394 453 40,000  Level Denver Center
Sat 05:38:09 PM 40.2939 -102.4275 255° West 391 450 40,000  Level Denver Center
Sat 05:39:11 PM 40.2656 -102.5575 254° West 389 448 40,000  Level Denver Center
Sat 05:40:12 PM 40.2353 -102.7014 255° West 392 451 40,000  Level Denver Center
Sat 05:41:14 PM 40.2061 -102.8392 255° West 390 449 40,000  Level Denver Center
Sat 05:42:15 PM 40.1753 -102.9756 254° West 390 449 40,000  Level Denver Center
Sat 05:43:17 PM 40.1444 -103.1119 254° West 388 447 40,000  Level Denver Center
Sat 05:44:19 PM 40.1158 -103.2508 255° West 391 450 40,000  Level Denver Center
Sat 05:45:20 PM 40.0836 -103.3875 253° West 390 449 40,000  Level Denver Center
Sat 05:46:22 PM 40.0542 -103.5261 255° West 391 450 40,000  Level Denver Center
Sat 05:47:23 PM 40.0175 -103.6869 253° West 394 453 40,000  Level Denver Center
Sat 05:48:25 PM 39.9881 -103.8267 255° West 396 456 40,000  Level Denver Center
Sat 05:49:27 PM 39.9556 -103.9642 253° West 394 453 40,000  Level Denver Center
Sat 05:50:28 PM 39.9247 -104.1011 254° West 391 450 40,000  Level Denver Center
Sat 05:51:30 PM 39.8931 -104.2372 253° West 390 449 40,000  Level Denver Center
Sat 05:52:31 PM 39.8611 -104.3719 253° West 387 445 40,000  Level Denver Center
Sat 05:53:33 PM 39.8300 -104.5067 253° West 386 444 40,000  Level Denver Center
Sat 05:54:35 PM 39.7986 -104.6386 253° West 383 441 40,000  Level Denver Center
Sat 05:55:36 PM 39.7683 -104.7722 254° West 406 467 40,000  Level Denver Center
Sat 05:56:38 PM 39.7297 -104.9303 252° West 394 453 40,000  Level Denver Center
Sat 05:57:39 PM 39.6972 -105.0639 252° West 389 448 40,000  Level Denver Center
Sat 05:58:41 PM 39.6656 -105.1961 253° West 380 437 40,000  Level Denver Center
Sat 05:59:43 PM 39.6339 -105.3253 252° West 373 429 40,000  Level Denver Center
Sat 06:00:44 PM 39.6019 -105.4561 252° West 372 428 40,000  Level Denver Center
Sat 06:01:46 PM 39.5706 -105.5856 253° West 372 428 40,000  Level Denver Center
Sat 06:02:48 PM 39.5378 -105.7183 252° West 381 438 40,000  Level Denver Center
Sat 06:03:49 PM 39.5061 -105.8486 253° West 372 428 40,000  Level Denver Center
Sat 06:04:51 PM 39.4689 -106.0022 253° West 380 437 40,000  Level Denver Center
Sat 06:05:53 PM 39.4356 -106.1344 252° West 382 440 40,000  Level Denver Center
Sat 06:06:54 PM 39.4031 -106.2664 252° West 385 443 40,000  Level Denver Center
Sat 06:07:56 PM 39.3714 -106.3911 252° West 384 442 40,000  Level Denver Center
Sat 06:08:58 PM 39.3350 -106.5378 252° West 384 442 40,000  Level Denver Center
Sat 06:09:59 PM 39.3019 -106.6658 252° West 389 448 40,000  Level Denver Center
Sat 06:11:01 PM 39.2636 -106.8125 251° West 387 445 40,000  Level Denver Center
Sat 06:12:03 PM 39.2308 -106.9394 252° West 388 447 40,000  Level Denver Center
Sat 06:13:04 PM 39.1983 -107.0661 252° West 389 448 40,000  Level Denver Center
Sat 06:14:06 PM 39.1708 -107.1717 251° West 389 448 40,000  Level Denver Center
Sat 06:15:08 PM 39.1247 -107.3414 251° West 394 453 40,000  Level Denver Center
Sat 06:16:09 PM 39.0872 -107.4894 252° West 390 449 40,000  Level Denver Center
Sat 06:17:11 PM 39.0519 -107.6153 250° West 390 449 40,000  Level Denver Center
Sat 06:18:12 PM 39.0206 -107.7394 252° West 384 442 40,000  Level Denver Center
Sat 06:19:14 PM 38.9806 -107.8881 251° West 389 448 40,000  Level Denver Center
Sat 06:20:16 PM 38.9469 -108.0142 251° West 389 448 40,000  Level Denver Center
Sat 06:21:17 PM 38.9072 -108.1611 251° West 388 447 40,000  Level Denver Center
Sat 06:22:19 PM 38.8722 -108.2861 250° West 388 447 40,000  Level Denver Center
Sat 06:23:20 PM 38.8389 -108.4119 251° West 388 447 40,000  Level Denver Center
Sat 06:24:22 PM 38.7983 -108.5581 250° West 389 448 40,000  Level Denver Center
Sat 06:25:24 PM 38.7639 -108.6836 251° West 388 447 40,000  Level Denver Center
Sat 06:26:25 PM 38.7233 -108.8292 250° West 386 444 40,000  Level Denver Center
Sat 06:27:27 PM 38.6889 -108.9542 251° West 389 448 40,000  Level Denver Center
Sat 06:28:29 PM 38.6536 -109.0775 250° West 385 443 40,000  Level Denver Center
Sat 06:29:30 PM 38.6128 -109.2217 250° West 386 444 40,000  Level Denver Center
Sat 06:30:32 PM 38.5789 -109.3450 251° West 383 441 40,000  Level Denver Center
Sat 06:31:33 PM 38.5378 -109.4858 250° West 380 437 40,000  Level Denver Center
Sat 06:32:35 PM 38.5033 -109.6075 250° West 379 436 40,000  Level Denver Center
Sat 06:33:37 PM 38.4683 -109.7292 250° West 381 438 40,000  Level Denver Center
Sat 06:34:38 PM 38.4261 -109.8711 249° West 383 441 40,000  Level Denver Center
Sat 06:35:40 PM 38.3911 -109.9936 250° West 383 441 40,000  Level Denver Center
Sat 06:36:41 PM 38.3483 -110.1378 249° West 388 447 40,000 -49 Level Denver Center
Sat 06:37:43 PM 38.2972 -110.2519 240° Southwest 390 449 39,900 -585 Descending Denver Center
Sat 06:38:44 PM 38.2425 -110.3825 242° Southwest 374 430 38,800 -976 Descending Denver Center
Sat 06:39:46 PM 38.1975 -110.4897 242° Southwest 362 417 37,900 -871 Descending Denver Center
Sat 06:40:48 PM 38.1500 -110.5989 241° Southwest 367 422 37,000 -939 Descending Denver Center
Sat 06:41:41 PM 38.1056 -110.7119 243° Southwest 372 428 36,100 -939 Descending Salt Center
Sat 06:42:43 PM 38.0569 -110.8233 241° Southwest 375 432 35,200 -1,024 Descending Salt Center
Sat 06:43:44 PM 38.0008 -110.9483 240° Southwest 370 426 34,000 -1,082 Descending Salt Center
Sat 06:44:45 PM 37.9531 -111.0606 242° Southwest 364 419 33,000 -916 Descending Salt Center
Sat 06:45:55 PM 37.8942 -111.1936 241° Southwest 362 417 32,000 -492 Descending Denver Center
Sat 06:46:47 PM 37.8569 -111.2825 242° Southwest 360 414 32,000  Level Salt Center
Sat 06:47:48 PM 37.8083 -111.3922 241° Southwest 358 412 32,000  Level Salt Center
Sat 06:48:49 PM 37.7597 -111.5036 241° Southwest 361 415 32,000  Level Salt Center
Sat 06:49:50 PM 37.7117 -111.6122 241° Southwest 357 411 32,000  Level Salt Center
Sat 06:50:51 PM 37.6631 -111.7219 241° Southwest 357 411 32,000  Level Salt Center
Sat 06:51:53 PM 37.6144 -111.8319 241° Southwest 359 413 32,000  Level Salt Center
Sat 06:52:54 PM 37.5647 -111.9419 240° Southwest 361 415 32,000  Level Salt Center
Sat 06:53:55 PM 37.5056 -112.0744 241° Southwest 361 415 32,000  Level Salt Center
Sat 06:54:33 PM 37.4744 -112.1403 239° Southwest 361 415 32,000  Level Los Center
Sat 06:54:56 PM 37.4561 -112.1858 243° Southwest 363 418 32,000  Level Salt Center
Sat 06:55:57 PM 37.4050 -112.2961 240° Southwest 364 419 32,000  Level Salt Center
Sat 06:56:37 PM 37.3742 -112.3636 240° Southwest 365 420 32,000  Level Los Center
Sat 06:56:58 PM 37.3547 -112.4092 242° Southwest 368 423 32,000  Level Salt Center
Sat 06:57:39 PM 37.3231 -112.4767 239° Southwest 368 423 32,000  Level Los Center
Sat 06:58:41 PM 37.2719 -112.5883 240° Southwest 367 422 32,000  Level Los Center
Sat 06:59:00 PM 37.2514 -112.6347 241° Southwest 370 426 32,000  Level Salt Center
Sat 07:00:01 PM 37.1964 -112.7531 240° Southwest 383 441 32,000  Level Salt Center
Sat 07:01:03 PM 37.1400 -112.8747 240° Southwest 397 457 32,000  Level Salt Center
Sat 07:01:46 PM 37.0958 -112.9697 240° Southwest 396 456 32,000 -57 Level Los Center
Sat 07:02:48 PM 37.0414 -113.0886 240° Southwest 393 452 31,900 -581 Descending Los Center
Sat 07:03:50 PM 36.9864 -113.2058 240° Southwest 392 451 30,800 -919 Descending Los Center
Sat 07:04:52 PM 36.9319 -113.3239 240° Southwest 392 451 30,000 -387 Descending Los Center
Sat 07:05:54 PM 36.8769 -113.4419 240° Southwest 392 451 30,000  Level Los Center
Sat 07:06:56 PM 36.8186 -113.5675 240° Southwest 409 471 30,000 -683 Level Los Center
Sat 07:07:57 PM 36.7708 -113.6672 239° Southwest 417 480 28,600 -2,468 Descending Los Center
Sat 07:09:00 PM 36.6928 -113.8353 240° Southwest 403 464 24,900 -3,048 Descending Los Center
Sat 07:10:01 PM 36.6386 -113.9511 240° Southwest 390 449 22,300 -2,537 Descending Los Center
Sat 07:11:03 PM 36.5853 -114.0628 239° Southwest 379 436 19,700 -2,516 Descending Los Center
Sat 07:12:05 PM 36.5356 -114.1717 240° Southwest 367 422 17,100 -2,565 Descending Los Center
Sat 07:13:07 PM 36.4808 -114.2914 240° Southwest 355 409 14,400 -2,483 Descending Los Center
Sat 07:13:32 PM 36.4619 -114.3389 244° Southwest 351 404 13,500 -1,839 Descending Los Center
Sat 07:14:09 PM 36.4331 -114.3958 238° Southwest 349 402 12,500 -1,046 Descending Los Center
Sat 07:15:21 PM 36.3722 -114.4900 231° Southwest 300 345 11,600 -1,083 Descending Los Center
Sat 07:16:22 PM 36.2925 -114.5011 186° South 294 338 10,100 -931 Descending Los Center
Sat 07:17:17 PM 36.2244 -114.4869 170° South 264 304 9,800 -569 Descending Los Center
Sat 07:18:18 PM 36.1564 -114.4725 170° South 252 290 9,000 -545 Descending Los Center
Sat 07:19:18 PM 36.1022 -114.5203 215° Southwest 231 266 8,700 -492 Descending Los Center
Sat 07:20:20 PM 36.0742 -114.5883 243° Southwest 232 267 8,000 -344 Descending Los Center
Sat 07:21:20 PM 36.0744 -114.6683 270° West 233 268 8,000 -99 Level Los Center
Sat 07:22:21 PM 36.0747 -114.7481 270° West 229 264 7,800 -316 Descending Los Center
Sat 07:22:36 PM 36.0739 -114.7625 266° West 228 262 7,600 -984 Descending Los Center
Sat 07:23:22 PM 36.0731 -114.8286 269° West 222 255 6,800 -1,082 Descending Los Center
Sat 07:23:37 PM 36.0742 -114.8403 277° West 226 260 6,500 -1,180 Descending Los Center
Sat 07:24:23 PM 36.0742 -114.9028 270° West 206 237 5,600 -1,065 Descending Los Center
Sat 07:24:39 PM 36.0742 -114.9128 270° West 221 254 5,400 -984 Descending Los Center
Sat 07:25:24 PM 36.0728 -114.9644 268° West 182 209 4,600 -968 Descending Los Center
Sat 07:25:41 PM 36.0733 -114.9761 273° West 203 234 4,400 -1,000 Descending Los Center
Sat 07:26:24 PM 36.0736 -115.0281 270° West 182 209 3,600 -968 Descending Los Center
Sat 07:26:43 PM 36.0744 -115.0372 276° West 189 217 3,400 -873 Descending Los Center
Sat 07:27:19 PM 36.0744 -115.0808 270° West 153 176 2,800 -774 Descending Los Center
Sat 07:27:45 PM 36.0739 -115.0922 267° West 176 203 2,600 -545 Descending Los Center
Sat 07:28:47 PM 36.0742 -115.1419 270° West 160 184 2,000 -581 Descending Los Center
Sat 07:30:00 PM 36.0667 -115.1500 219° Southwest  Level FlightAware

Login

Don't have an account? Register now (free) for customized features, flight alerts, and more!